sensor_id;sensor_type;location;lat;lon;timestamp;pressure;altitude;pressure_sealevel;temperature;humidity
18988;BME280;5494;51.796;10.952;2023-06-14T00:00:34;99089.06;;;14.55;71.41
18988;BME280;5494;51.796;10.952;2023-06-14T00:03:02;99079.34;;;14.57;71.09
18988;BME280;5494;51.796;10.952;2023-06-14T00:05:31;99083.38;;;14.48;71.98
18988;BME280;5494;51.796;10.952;2023-06-14T00:08:05;99094.16;;;14.44;72.28
18988;BME280;5494;51.796;10.952;2023-06-14T00:10:36;99081.34;;;14.39;72.82
18988;BME280;5494;51.796;10.952;2023-06-14T00:13:05;99095.38;;;14.38;71.26
18988;BME280;5494;51.796;10.952;2023-06-14T00:15:34;99099.47;;;14.42;71.55
18988;BME280;5494;51.796;10.952;2023-06-14T00:18:03;99103.47;;;14.48;72.04
18988;BME280;5494;51.796;10.952;2023-06-14T00:20:34;99094.81;;;14.33;72.84
18988;BME280;5494;51.796;10.952;2023-06-14T00:23:02;99094.84;;;14.19;73.65
18988;BME280;5494;51.796;10.952;2023-06-14T00:25:30;99100.72;;;14.23;73.85
18988;BME280;5494;51.796;10.952;2023-06-14T00:28:00;99101.44;;;14.25;73.10
18988;BME280;5494;51.796;10.952;2023-06-14T00:30:28;99104.41;;;14.06;74.08
18988;BME280;5494;51.796;10.952;2023-06-14T00:32:58;99098.09;;;13.96;74.58
18988;BME280;5494;51.796;10.952;2023-06-14T00:35:27;99097.97;;;13.83;75.91
18988;BME280;5494;51.796;10.952;2023-06-14T00:37:56;99099.66;;;13.84;76.01
18988;BME280;5494;51.796;10.952;2023-06-14T00:40:26;99095.19;;;13.86;76.25
18988;BME280;5494;51.796;10.952;2023-06-14T00:42:54;99097.97;;;13.83;76.34
18988;BME280;5494;51.796;10.952;2023-06-14T00:45:23;99096.72;;;13.76;76.33
18988;BME280;5494;51.796;10.952;2023-06-14T00:47:52;99100.88;;;13.78;76.45
18988;BME280;5494;51.796;10.952;2023-06-14T00:50:22;99092.97;;;13.66;77.01
18988;BME280;5494;51.796;10.952;2023-06-14T00:52:51;99099.66;;;13.84;76.40
18988;BME280;5494;51.796;10.952;2023-06-14T00:55:19;99090.28;;;13.67;76.53
18988;BME280;5494;51.796;10.952;2023-06-14T00:57:48;99092.03;;;13.67;76.48
18988;BME280;5494;51.796;10.952;2023-06-14T01:00:17;99096.13;;;13.57;77.18
18988;BME280;5494;51.796;10.952;2023-06-14T01:02:47;99094.44;;;13.56;78.38
18988;BME280;5494;51.796;10.952;2023-06-14T01:05:17;99088.59;;;13.52;78.48
18988;BME280;5494;51.796;10.952;2023-06-14T01:08:05;99093.72;;;13.39;78.71
18988;BME280;5494;51.796;10.952;2023-06-14T01:10:47;99088.69;;;13.51;79.05
18988;BME280;5494;51.796;10.952;2023-06-14T01:13:27;99094.28;;;13.45;79.44
18988;BME280;5494;51.796;10.952;2023-06-14T01:15:57;99095.03;;;13.32;80.19
18988;BME280;5494;51.796;10.952;2023-06-14T01:18:28;99091.84;;;13.27;80.38
18988;BME280;5494;51.796;10.952;2023-06-14T01:20:57;99097.06;;;13.27;80.57
18988;BME280;5494;51.796;10.952;2023-06-14T01:23:26;99100.03;;;13.21;81.04
18988;BME280;5494;51.796;10.952;2023-06-14T01:26:00;99103.00;;;13.15;81.14
18988;BME280;5494;51.796;10.952;2023-06-14T01:28:33;99103.94;;;13.14;82.11
18988;BME280;5494;51.796;10.952;2023-06-14T01:31:03;99106.19;;;13.20;81.66
18988;BME280;5494;51.796;10.952;2023-06-14T01:33:34;99102.56;;;13.07;82.98
18988;BME280;5494;51.796;10.952;2023-06-14T01:36:07;99106.88;;;13.08;83.56
18988;BME280;5494;51.796;10.952;2023-06-14T01:38:37;99112.00;;;13.10;83.17
18988;BME280;5494;51.796;10.952;2023-06-14T01:41:06;99108.16;;;13.01;83.94
18988;BME280;5494;51.796;10.952;2023-06-14T01:43:35;99114.31;;;13.00;84.49
18988;BME280;5494;51.796;10.952;2023-06-14T01:46:06;99107.41;;;12.85;85.98
18988;BME280;5494;51.796;10.952;2023-06-14T01:48:36;99109.06;;;12.86;86.55
18988;BME280;5494;51.796;10.952;2023-06-14T01:51:04;99113.22;;;12.74;87.08
18988;BME280;5494;51.796;10.952;2023-06-14T01:53:32;99116.25;;;12.67;87.52
18988;BME280;5494;51.796;10.952;2023-06-14T01:56:01;99120.31;;;12.56;89.59
18988;BME280;5494;51.796;10.952;2023-06-14T01:58:30;99110.97;;;12.68;89.33
18988;BME280;5494;51.796;10.952;2023-06-14T02:00:59;99110.81;;;12.55;89.29
18988;BME280;5494;51.796;10.952;2023-06-14T02:03:28;99106.72;;;12.51;89.89
18988;BME280;5494;51.796;10.952;2023-06-14T02:05:56;99111.22;;;12.63;89.39
18988;BME280;5494;51.796;10.952;2023-06-14T02:08:25;99116.69;;;12.59;88.90
18988;BME280;5494;51.796;10.952;2023-06-14T02:10:53;99116.03;;;12.55;88.98
18988;BME280;5494;51.796;10.952;2023-06-14T02:13:22;99110.31;;;12.49;89.70
18988;BME280;5494;51.796;10.952;2023-06-14T02:15:50;99111.31;;;12.46;90.42
18988;BME280;5494;51.796;10.952;2023-06-14T02:18:22;99106.31;;;12.43;90.68
18988;BME280;5494;51.796;10.952;2023-06-14T02:20:50;99112.00;;;12.50;89.99
18988;BME280;5494;51.796;10.952;2023-06-14T02:23:19;99106.13;;;12.46;90.17
18988;BME280;5494;51.796;10.952;2023-06-14T02:25:47;99110.84;;;12.40;90.52
18988;BME280;5494;51.796;10.952;2023-06-14T02:28:18;99109.81;;;12.42;90.75
18988;BME280;5494;51.796;10.952;2023-06-14T02:30:48;99113.53;;;12.38;91.15
18988;BME280;5494;51.796;10.952;2023-06-14T02:33:16;99113.84;;;12.32;92.05
18988;BME280;5494;51.796;10.952;2023-06-14T02:35:44;99114.78;;;12.31;92.39
18988;BME280;5494;51.796;10.952;2023-06-14T02:38:13;99120.44;;;12.23;92.94
18988;BME280;5494;51.796;10.952;2023-06-14T02:40:41;99124.28;;;12.32;92.81
18988;BME280;5494;51.796;10.952;2023-06-14T02:43:09;99126.31;;;12.27;93.24
18988;BME280;5494;51.796;10.952;2023-06-14T02:45:38;99126.66;;;12.37;92.76
18988;BME280;5494;51.796;10.952;2023-06-14T02:48:08;99130.34;;;12.33;93.18
18988;BME280;5494;51.796;10.952;2023-06-14T02:50:40;99136.91;;;12.24;93.57
18988;BME280;5494;51.796;10.952;2023-06-14T02:53:08;99127.94;;;12.30;94.19
18988;BME280;5494;51.796;10.952;2023-06-14T02:55:36;99131.44;;;12.29;93.71
18988;BME280;5494;51.796;10.952;2023-06-14T02:58:07;99128.91;;;12.27;94.64
18988;BME280;5494;51.796;10.952;2023-06-14T03:00:35;99139.50;;;12.24;95.13
18988;BME280;5494;51.796;10.952;2023-06-14T03:03:05;99140.28;;;12.26;94.45
18988;BME280;5494;51.796;10.952;2023-06-14T03:05:47;99141.19;;;12.25;95.09
18988;BME280;5494;51.796;10.952;2023-06-14T03:08:19;99144.47;;;12.29;95.21
18988;BME280;5494;51.796;10.952;2023-06-14T03:10:51;99135.41;;;12.36;94.56
18988;BME280;5494;51.796;10.952;2023-06-14T03:13:19;99138.34;;;12.30;95.28
18988;BME280;5494;51.796;10.952;2023-06-14T03:15:48;99139.84;;;12.34;95.75
18988;BME280;5494;51.796;10.952;2023-06-14T03:18:19;99133.72;;;12.50;94.70
18988;BME280;5494;51.796;10.952;2023-06-14T03:20:55;99146.63;;;12.68;93.01
18988;BME280;5494;51.796;10.952;2023-06-14T03:23:26;99144.59;;;12.73;92.21
18988;BME280;5494;51.796;10.952;2023-06-14T03:25:54;99142.63;;;12.92;91.89
18988;BME280;5494;51.796;10.952;2023-06-14T03:28:23;99147.97;;;13.05;90.24
18988;BME280;5494;51.796;10.952;2023-06-14T03:30:52;99155.13;;;13.17;88.94
18988;BME280;5494;51.796;10.952;2023-06-14T03:33:20;99148.94;;;13.33;88.21
18988;BME280;5494;51.796;10.952;2023-06-14T03:35:48;99148.72;;;13.36;86.96
18988;BME280;5494;51.796;10.952;2023-06-14T03:38:18;99152.88;;;13.55;86.17
18988;BME280;5494;51.796;10.952;2023-06-14T03:40:46;99158.00;;;13.70;84.48
18988;BME280;5494;51.796;10.952;2023-06-14T03:43:15;99169.13;;;13.88;83.15
18988;BME280;5494;51.796;10.952;2023-06-14T03:45:43;99164.16;;;13.98;82.22
18988;BME280;5494;51.796;10.952;2023-06-14T03:48:11;99165.72;;;14.14;81.38
18988;BME280;5494;51.796;10.952;2023-06-14T03:50:39;99170.84;;;14.30;80.03
18988;BME280;5494;51.796;10.952;2023-06-14T03:53:09;99168.13;;;14.46;78.08
18988;BME280;5494;51.796;10.952;2023-06-14T03:55:42;99169.59;;;14.64;77.82
18988;BME280;5494;51.796;10.952;2023-06-14T03:58:13;99176.78;;;14.87;75.49
18988;BME280;5494;51.796;10.952;2023-06-14T04:00:41;99178.78;;;14.96;74.08
18988;BME280;5494;51.796;10.952;2023-06-14T04:03:09;99185.28;;;14.91;74.07
18988;BME280;5494;51.796;10.952;2023-06-14T04:05:40;99187.13;;;15.16;72.87
18988;BME280;5494;51.796;10.952;2023-06-14T04:08:09;99185.69;;;15.24;71.42
18988;BME280;5494;51.796;10.952;2023-06-14T04:10:37;99187.25;;;15.14;72.33
18988;BME280;5494;51.796;10.952;2023-06-14T04:13:06;99185.50;;;15.01;73.04
18988;BME280;5494;51.796;10.952;2023-06-14T04:15:34;99189.22;;;15.11;73.24
18988;BME280;5494;51.796;10.952;2023-06-14T04:18:04;99185.63;;;14.99;72.97
18988;BME280;5494;51.796;10.952;2023-06-14T04:20:32;99199.47;;;14.87;73.57
18988;BME280;5494;51.796;10.952;2023-06-14T04:23:12;99198.81;;;14.71;74.73
18988;BME280;5494;51.796;10.952;2023-06-14T04:25:41;99186.66;;;14.96;74.59
18988;BME280;5494;51.796;10.952;2023-06-14T04:28:14;99185.31;;;15.94;71.01
18988;BME280;5494;51.796;10.952;2023-06-14T04:30:43;99183.91;;;16.99;64.34
18988;BME280;5494;51.796;10.952;2023-06-14T04:33:13;99180.47;;;17.91;59.30
18988;BME280;5494;51.796;10.952;2023-06-14T04:35:42;99176.91;;;18.68;55.76
18988;BME280;5494;51.796;10.952;2023-06-14T04:38:14;99178.34;;;19.57;52.10
18988;BME280;5494;51.796;10.952;2023-06-14T04:40:43;99186.69;;;20.43;49.39
18988;BME280;5494;51.796;10.952;2023-06-14T04:43:17;99186.78;;;20.92;46.92
18988;BME280;5494;51.796;10.952;2023-06-14T04:45:47;99182.91;;;19.76;49.65
18988;BME280;5494;51.796;10.952;2023-06-14T04:48:16;99191.59;;;19.66;50.64
18988;BME280;5494;51.796;10.952;2023-06-14T04:50:48;99192.44;;;19.67;50.54
18988;BME280;5494;51.796;10.952;2023-06-14T04:53:20;99208.28;;;19.14;52.31
18988;BME280;5494;51.796;10.952;2023-06-14T04:55:52;99209.75;;;18.64;53.47
18988;BME280;5494;51.796;10.952;2023-06-14T04:58:23;99205.09;;;19.00;54.05
18988;BME280;5494;51.796;10.952;2023-06-14T05:00:51;99210.34;;;18.12;56.50
18988;BME280;5494;51.796;10.952;2023-06-14T05:03:20;99206.16;;;18.21;56.76
18988;BME280;5494;51.796;10.952;2023-06-14T05:05:48;99201.00;;;19.59;52.81
18988;BME280;5494;51.796;10.952;2023-06-14T05:08:17;99213.09;;;19.62;50.52
18988;BME280;5494;51.796;10.952;2023-06-14T05:10:47;99209.25;;;19.34;52.25
18988;BME280;5494;51.796;10.952;2023-06-14T05:13:16;99209.63;;;19.61;51.15
18988;BME280;5494;51.796;10.952;2023-06-14T05:15:47;99209.81;;;19.49;51.51
18988;BME280;5494;51.796;10.952;2023-06-14T05:18:16;99200.13;;;20.31;50.54
18988;BME280;5494;51.796;10.952;2023-06-14T05:20:44;99200.50;;;20.26;48.77
18988;BME280;5494;51.796;10.952;2023-06-14T05:23:12;99198.44;;;20.70;47.51
18988;BME280;5494;51.796;10.952;2023-06-14T05:25:43;99192.03;;;21.78;44.95
18988;BME280;5494;51.796;10.952;2023-06-14T05:28:12;99208.94;;;21.39;45.16
18988;BME280;5494;51.796;10.952;2023-06-14T05:30:40;99204.78;;;22.12;43.52
18988;BME280;5494;51.796;10.952;2023-06-14T05:33:10;99211.22;;;22.73;43.01
18988;BME280;5494;51.796;10.952;2023-06-14T05:35:38;99202.50;;;22.26;43.51
18988;BME280;5494;51.796;10.952;2023-06-14T05:38:06;99212.94;;;21.04;45.99
18988;BME280;5494;51.796;10.952;2023-06-14T05:40:34;99211.97;;;21.73;45.21
18988;BME280;5494;51.796;10.952;2023-06-14T05:43:02;99205.44;;;23.31;42.04
18988;BME280;5494;51.796;10.952;2023-06-14T05:45:31;99210.16;;;23.37;40.85
18988;BME280;5494;51.796;10.952;2023-06-14T05:47:59;99212.16;;;23.35;40.56
18988;BME280;5494;51.796;10.952;2023-06-14T05:50:28;99205.97;;;23.96;40.27
18988;BME280;5494;51.796;10.952;2023-06-14T05:52:57;99212.97;;;23.71;39.67
18988;BME280;5494;51.796;10.952;2023-06-14T05:55:25;99211.91;;;22.93;41.33
18988;BME280;5494;51.796;10.952;2023-06-14T05:57:53;99212.72;;;24.16;39.82
18988;BME280;5494;51.796;10.952;2023-06-14T06:00:21;99212.22;;;23.87;39.54
18988;BME280;5494;51.796;10.952;2023-06-14T06:02:49;99222.09;;;24.28;39.15
18988;BME280;5494;51.796;10.952;2023-06-14T06:05:18;99216.78;;;25.85;36.92
18988;BME280;5494;51.796;10.952;2023-06-14T06:07:47;99212.50;;;26.40;34.78
18988;BME280;5494;51.796;10.952;2023-06-14T06:10:16;99219.34;;;27.50;33.03
18988;BME280;5494;51.796;10.952;2023-06-14T06:12:44;99219.84;;;27.30;33.72
18988;BME280;5494;51.796;10.952;2023-06-14T06:15:14;99225.59;;;26.88;33.76
18988;BME280;5494;51.796;10.952;2023-06-14T06:17:44;99220.75;;;27.23;33.46
18988;BME280;5494;51.796;10.952;2023-06-14T06:20:21;99221.59;;;26.06;35.38
18988;BME280;5494;51.796;10.952;2023-06-14T06:22:59;99228.97;;;27.36;33.34
18988;BME280;5494;51.796;10.952;2023-06-14T06:25:28;99233.84;;;27.78;31.87
18988;BME280;5494;51.796;10.952;2023-06-14T06:27:58;99230.16;;;27.94;32.43
18988;BME280;5494;51.796;10.952;2023-06-14T06:30:26;99236.78;;;28.20;31.62
18988;BME280;5494;51.796;10.952;2023-06-14T06:32:54;99233.72;;;28.53;31.45
18988;BME280;5494;51.796;10.952;2023-06-14T06:35:23;99236.88;;;27.90;31.94
18988;BME280;5494;51.796;10.952;2023-06-14T06:37:51;99241.69;;;28.09;32.72
18988;BME280;5494;51.796;10.952;2023-06-14T06:40:21;99255.72;;;24.80;37.20
18988;BME280;5494;51.796;10.952;2023-06-14T06:42:49;99262.47;;;23.27;40.82
18988;BME280;5494;51.796;10.952;2023-06-14T06:45:19;99259.56;;;22.11;43.98
18988;BME280;5494;51.796;10.952;2023-06-14T06:47:50;99258.09;;;22.63;42.63
18988;BME280;5494;51.796;10.952;2023-06-14T06:50:19;99256.84;;;23.12;42.19
18988;BME280;5494;51.796;10.952;2023-06-14T06:52:50;99258.84;;;24.67;39.35
18988;BME280;5494;51.796;10.952;2023-06-14T06:55:18;99258.72;;;24.43;38.61
18988;BME280;5494;51.796;10.952;2023-06-14T06:57:47;99259.91;;;24.82;38.99
18988;BME280;5494;51.796;10.952;2023-06-14T07:00:17;99260.56;;;25.75;37.39
18988;BME280;5494;51.796;10.952;2023-06-14T07:02:46;99256.13;;;26.94;34.93
18988;BME280;5494;51.796;10.952;2023-06-14T07:05:15;99260.84;;;27.60;33.80
18988;BME280;5494;51.796;10.952;2023-06-14T07:07:43;99254.53;;;27.99;33.23
18988;BME280;5494;51.796;10.952;2023-06-14T07:10:11;99262.47;;;27.24;34.18
18988;BME280;5494;51.796;10.952;2023-06-14T07:12:39;99261.03;;;25.46;36.10
18988;BME280;5494;51.796;10.952;2023-06-14T07:15:09;99273.28;;;22.98;41.03
18988;BME280;5494;51.796;10.952;2023-06-14T07:17:38;99269.78;;;21.77;44.62
18988;BME280;5494;51.796;10.952;2023-06-14T07:20:08;99269.72;;;22.06;44.97
18988;BME280;5494;51.796;10.952;2023-06-14T07:22:39;99273.53;;;22.04;44.03
18988;BME280;5494;51.796;10.952;2023-06-14T07:25:10;99271.47;;;23.16;41.74
18988;BME280;5494;51.796;10.952;2023-06-14T07:27:41;99274.94;;;23.62;40.79
18988;BME280;5494;51.796;10.952;2023-06-14T07:30:11;99272.59;;;22.96;42.74
18988;BME280;5494;51.796;10.952;2023-06-14T07:32:39;99276.00;;;22.52;42.77
18988;BME280;5494;51.796;10.952;2023-06-14T07:35:13;99279.81;;;21.74;43.82
18988;BME280;5494;51.796;10.952;2023-06-14T07:37:41;99270.69;;;22.15;44.71
18988;BME280;5494;51.796;10.952;2023-06-14T07:40:11;99280.38;;;21.48;45.60
18988;BME280;5494;51.796;10.952;2023-06-14T07:42:40;99277.44;;;21.61;45.30
18988;BME280;5494;51.796;10.952;2023-06-14T07:45:13;99273.81;;;21.52;44.44
18988;BME280;5494;51.796;10.952;2023-06-14T07:47:42;99276.63;;;21.70;43.97
18988;BME280;5494;51.796;10.952;2023-06-14T07:50:11;99268.41;;;22.66;43.27
18988;BME280;5494;51.796;10.952;2023-06-14T07:52:39;99267.50;;;22.48;43.19
18988;BME280;5494;51.796;10.952;2023-06-14T07:55:08;99271.28;;;21.99;44.05
18988;BME280;5494;51.796;10.952;2023-06-14T07:57:36;99269.13;;;22.31;43.21
18988;BME280;5494;51.796;10.952;2023-06-14T08:00:06;99273.91;;;21.12;45.47
18988;BME280;5494;51.796;10.952;2023-06-14T08:02:43;99263.06;;;22.02;44.82
18988;BME280;5494;51.796;10.952;2023-06-14T08:05:12;99261.06;;;22.88;41.85
18988;BME280;5494;51.796;10.952;2023-06-14T08:07:41;99273.69;;;23.21;40.35
18988;BME280;5494;51.796;10.952;2023-06-14T08:10:09;99265.31;;;23.61;40.36
18988;BME280;5494;51.796;10.952;2023-06-14T08:12:38;99265.13;;;23.45;39.93
18988;BME280;5494;51.796;10.952;2023-06-14T08:15:07;99266.38;;;22.88;41.32
18988;BME280;5494;51.796;10.952;2023-06-14T08:17:42;99263.22;;;23.37;40.70
18988;BME280;5494;51.796;10.952;2023-06-14T08:20:11;99270.38;;;23.37;40.31
18988;BME280;5494;51.796;10.952;2023-06-14T08:22:40;99265.69;;;22.86;41.28
18988;BME280;5494;51.796;10.952;2023-06-14T08:25:09;99259.81;;;22.82;41.89
18988;BME280;5494;51.796;10.952;2023-06-14T08:27:39;99263.75;;;22.41;42.08
18988;BME280;5494;51.796;10.952;2023-06-14T08:30:09;99273.88;;;20.93;44.51
18988;BME280;5494;51.796;10.952;2023-06-14T08:32:37;99269.78;;;20.70;45.55
18988;BME280;5494;51.796;10.952;2023-06-14T08:35:07;99280.41;;;20.28;46.67
18988;BME280;5494;51.796;10.952;2023-06-14T08:37:38;99274.72;;;20.23;47.67
18988;BME280;5494;51.796;10.952;2023-06-14T08:40:19;99270.31;;;19.82;47.96
18988;BME280;5494;51.796;10.952;2023-06-14T08:42:52;99262.16;;;20.16;47.17
18988;BME280;5494;51.796;10.952;2023-06-14T08:45:21;99264.09;;;20.74;46.32
18988;BME280;5494;51.796;10.952;2023-06-14T08:47:53;99269.19;;;21.06;45.05
18988;BME280;5494;51.796;10.952;2023-06-14T08:50:28;99256.00;;;21.54;44.30
18988;BME280;5494;51.796;10.952;2023-06-14T08:53:00;99268.59;;;21.03;44.96
18988;BME280;5494;51.796;10.952;2023-06-14T08:55:31;99256.13;;;21.53;43.58
18988;BME280;5494;51.796;10.952;2023-06-14T08:58:04;99264.75;;;21.65;43.73
18988;BME280;5494;51.796;10.952;2023-06-14T09:00:32;99263.03;;;20.96;45.03
18988;BME280;5494;51.796;10.952;2023-06-14T09:03:01;99266.94;;;20.92;45.46
18988;BME280;5494;51.796;10.952;2023-06-14T09:05:32;99258.06;;;21.80;44.83
18988;BME280;5494;51.796;10.952;2023-06-14T09:08:00;99271.72;;;21.66;43.30
18988;BME280;5494;51.796;10.952;2023-06-14T09:10:33;99272.91;;;21.04;43.86
18988;BME280;5494;51.796;10.952;2023-06-14T09:13:02;99279.47;;;21.09;44.33
18988;BME280;5494;51.796;10.952;2023-06-14T09:15:30;99279.38;;;21.30;43.91
18988;BME280;5494;51.796;10.952;2023-06-14T09:18:01;99269.00;;;20.49;45.71
18988;BME280;5494;51.796;10.952;2023-06-14T09:20:32;99266.16;;;21.40;45.02
18988;BME280;5494;51.796;10.952;2023-06-14T09:23:03;99270.63;;;21.58;41.79
18988;BME280;5494;51.796;10.952;2023-06-14T09:25:32;99283.69;;;21.31;43.65
18988;BME280;5494;51.796;10.952;2023-06-14T09:28:09;99279.13;;;21.62;43.04
18988;BME280;5494;51.796;10.952;2023-06-14T09:30:38;99274.00;;;22.63;39.71
18988;BME280;5494;51.796;10.952;2023-06-14T09:33:07;99278.06;;;22.95;40.28
18988;BME280;5494;51.796;10.952;2023-06-14T09:35:39;99286.97;;;22.20;41.33
18988;BME280;5494;51.796;10.952;2023-06-14T09:38:07;99287.47;;;21.29;42.91
18988;BME280;5494;51.796;10.952;2023-06-14T09:40:36;99278.44;;;21.41;43.47
18988;BME280;5494;51.796;10.952;2023-06-14T09:43:06;99282.59;;;21.63;42.03
18988;BME280;5494;51.796;10.952;2023-06-14T09:45:35;99292.47;;;21.32;42.58
18988;BME280;5494;51.796;10.952;2023-06-14T09:48:04;99294.31;;;20.91;44.08
18988;BME280;5494;51.796;10.952;2023-06-14T09:50:34;99289.31;;;20.98;44.75
18988;BME280;5494;51.796;10.952;2023-06-14T09:53:08;99292.59;;;20.71;44.02
18988;BME280;5494;51.796;10.952;2023-06-14T09:55:41;99275.09;;;20.39;45.60
18988;BME280;5494;51.796;10.952;2023-06-14T09:58:10;99281.00;;;21.12;43.58
18988;BME280;5494;51.796;10.952;2023-06-14T10:00:41;99281.75;;;21.23;43.04
18988;BME280;5494;51.796;10.952;2023-06-14T10:03:14;99279.25;;;21.70;41.40
18988;BME280;5494;51.796;10.952;2023-06-14T10:05:45;99270.66;;;22.61;40.59
18988;BME280;5494;51.796;10.952;2023-06-14T10:08:20;99270.84;;;22.50;40.02
18988;BME280;5494;51.796;10.952;2023-06-14T10:10:55;99259.22;;;23.33;38.85
18988;BME280;5494;51.796;10.952;2023-06-14T10:13:25;99265.91;;;23.55;38.28
18988;BME280;5494;51.796;10.952;2023-06-14T10:16:05;99273.59;;;22.31;40.72
18988;BME280;5494;51.796;10.952;2023-06-14T10:18:46;99276.44;;;21.14;42.38
18988;BME280;5494;51.796;10.952;2023-06-14T10:21:22;99272.28;;;21.31;42.55
18988;BME280;5494;51.796;10.952;2023-06-14T10:24:05;99282.78;;;20.92;43.26
18988;BME280;5494;51.796;10.952;2023-06-14T10:26:35;99266.03;;;21.22;43.18
18988;BME280;5494;51.796;10.952;2023-06-14T10:29:08;99255.84;;;21.66;43.08
18988;BME280;5494;51.796;10.952;2023-06-14T10:31:41;99250.38;;;21.86;42.73
18988;BME280;5494;51.796;10.952;2023-06-14T10:34:11;99265.88;;;21.81;42.61
18988;BME280;5494;51.796;10.952;2023-06-14T10:36:42;99253.22;;;21.17;43.60
18988;BME280;5494;51.796;10.952;2023-06-14T10:39:17;99246.41;;;21.63;43.35
18988;BME280;5494;51.796;10.952;2023-06-14T10:41:55;99254.41;;;22.00;41.92
18988;BME280;5494;51.796;10.952;2023-06-14T10:44:38;99249.09;;;22.19;41.84
18988;BME280;5494;51.796;10.952;2023-06-14T10:47:10;99259.09;;;21.50;42.93
18988;BME280;5494;51.796;10.952;2023-06-14T10:49:41;99254.16;;;22.03;43.25
18988;BME280;5494;51.796;10.952;2023-06-14T10:52:12;99256.69;;;21.47;43.62
18988;BME280;5494;51.796;10.952;2023-06-14T10:55:07;99245.63;;;21.03;44.34
18988;BME280;5494;51.796;10.952;2023-06-14T10:57:41;99257.25;;;21.21;44.19
18988;BME280;5494;51.796;10.952;2023-06-14T11:00:20;99244.75;;;21.43;43.99
18988;BME280;5494;51.796;10.952;2023-06-14T11:03:40;99240.63;;;21.10;44.58
18988;BME280;5494;51.796;10.952;2023-06-14T11:06:14;99231.91;;;21.48;44.25
18988;BME280;5494;51.796;10.952;2023-06-14T11:09:20;99247.94;;;21.56;44.91
18988;BME280;5494;51.796;10.952;2023-06-14T11:11:56;99239.31;;;21.35;44.75
18988;BME280;5494;51.796;10.952;2023-06-14T11:14:24;99249.00;;;21.05;44.59
18988;BME280;5494;51.796;10.952;2023-06-14T11:16:52;99238.78;;;20.72;45.28
18988;BME280;5494;51.796;10.952;2023-06-14T11:19:22;99260.09;;;20.80;45.86
18988;BME280;5494;51.796;10.952;2023-06-14T11:21:50;99255.78;;;20.89;45.82
18988;BME280;5494;51.796;10.952;2023-06-14T11:24:18;99239.78;;;20.90;46.42
18988;BME280;5494;51.796;10.952;2023-06-14T11:26:47;99233.09;;;20.86;46.28
18988;BME280;5494;51.796;10.952;2023-06-14T11:29:20;99229.69;;;21.24;45.07
18988;BME280;5494;51.796;10.952;2023-06-14T11:31:48;99241.59;;;20.90;45.41
18988;BME280;5494;51.796;10.952;2023-06-14T11:34:17;99231.03;;;20.99;45.59
18988;BME280;5494;51.796;10.952;2023-06-14T11:36:49;99243.06;;;20.63;46.81
18988;BME280;5494;51.796;10.952;2023-06-14T11:39:17;99229.44;;;20.68;46.51
18988;BME280;5494;51.796;10.952;2023-06-14T11:41:45;99225.28;;;20.65;47.02
18988;BME280;5494;51.796;10.952;2023-06-14T11:44:13;99231.56;;;20.83;47.91
18988;BME280;5494;51.796;10.952;2023-06-14T11:46:43;99222.44;;;21.07;46.54
18988;BME280;5494;51.796;10.952;2023-06-14T11:49:10;99219.78;;;21.07;46.90
18988;BME280;5494;51.796;10.952;2023-06-14T11:51:38;99215.91;;;21.30;44.75
18988;BME280;5494;51.796;10.952;2023-06-14T11:54:07;99231.84;;;21.86;45.49
18988;BME280;5494;51.796;10.952;2023-06-14T11:56:36;99220.34;;;21.68;43.82
18988;BME280;5494;51.796;10.952;2023-06-14T11:59:05;99239.44;;;21.52;44.22
18988;BME280;5494;51.796;10.952;2023-06-14T12:01:37;99217.28;;;21.63;44.13
18988;BME280;5494;51.796;10.952;2023-06-14T12:04:08;99223.56;;;21.23;44.84
18988;BME280;5494;51.796;10.952;2023-06-14T12:06:36;99217.44;;;21.42;44.59
18988;BME280;5494;51.796;10.952;2023-06-14T12:09:07;99224.78;;;21.58;43.95
18988;BME280;5494;51.796;10.952;2023-06-14T12:11:40;99218.41;;;21.32;44.82
18988;BME280;5494;51.796;10.952;2023-06-14T12:14:09;99209.91;;;21.38;45.25
18988;BME280;5494;51.796;10.952;2023-06-14T12:16:39;99223.03;;;21.30;45.23
18988;BME280;5494;51.796;10.952;2023-06-14T12:19:13;99213.41;;;21.38;45.45
18988;BME280;5494;51.796;10.952;2023-06-14T12:21:43;99215.78;;;21.32;45.61
18988;BME280;5494;51.796;10.952;2023-06-14T12:24:12;99211.28;;;21.61;45.26
18988;BME280;5494;51.796;10.952;2023-06-14T12:26:41;99211.25;;;22.27;43.76
18988;BME280;5494;51.796;10.952;2023-06-14T12:29:10;99221.88;;;21.61;44.49
18988;BME280;5494;51.796;10.952;2023-06-14T12:31:40;99215.47;;;21.54;45.35
18988;BME280;5494;51.796;10.952;2023-06-14T12:34:10;99211.19;;;21.43;45.40
18988;BME280;5494;51.796;10.952;2023-06-14T12:36:38;99212.78;;;21.73;45.31
18988;BME280;5494;51.796;10.952;2023-06-14T12:39:12;99221.91;;;21.42;44.45
18988;BME280;5494;51.796;10.952;2023-06-14T12:41:40;99222.19;;;21.19;44.11
18988;BME280;5494;51.796;10.952;2023-06-14T12:44:10;99230.19;;;20.89;44.88
18988;BME280;5494;51.796;10.952;2023-06-14T12:46:38;99209.03;;;20.89;45.53
18988;BME280;5494;51.796;10.952;2023-06-14T12:49:11;99222.72;;;21.13;45.21
18988;BME280;5494;51.796;10.952;2023-06-14T12:51:39;99221.28;;;21.09;45.82
18988;BME280;5494;51.796;10.952;2023-06-14T12:54:08;99214.13;;;21.21;45.82
18988;BME280;5494;51.796;10.952;2023-06-14T12:56:36;99215.59;;;21.14;45.81
18988;BME280;5494;51.796;10.952;2023-06-14T12:59:04;99208.19;;;20.89;46.76
18988;BME280;5494;51.796;10.952;2023-06-14T13:01:33;99226.28;;;20.74;47.01
18988;BME280;5494;51.796;10.952;2023-06-14T13:04:01;99219.19;;;20.84;47.23
18988;BME280;5494;51.796;10.952;2023-06-14T13:06:31;99226.03;;;20.87;46.51
18988;BME280;5494;51.796;10.952;2023-06-14T13:09:00;99217.50;;;20.83;46.23
18988;BME280;5494;51.796;10.952;2023-06-14T13:11:28;99210.72;;;20.90;46.58
18988;BME280;5494;51.796;10.952;2023-06-14T13:13:57;99208.47;;;20.86;47.04
18988;BME280;5494;51.796;10.952;2023-06-14T13:16:28;99214.38;;;21.08;46.87